createdAt,value
2022-12-03T00:00:47.800Z,29.17
2022-12-03T00:10:57.258Z,23.13
2022-12-03T00:20:59.438Z,22.92
2022-12-03T00:31:01.727Z,23.65
2022-12-03T00:41:03.994Z,23.48
2022-12-03T00:51:06.499Z,19.27
2022-12-03T01:01:08.698Z,19.83
2022-12-03T01:11:30.856Z,21.30
2022-12-03T01:21:33.590Z,20.90
2022-12-03T01:31:54.144Z,21.13
2022-12-03T01:41:58.872Z,20.67
2022-12-03T01:52:01.091Z,20.60
2022-12-03T02:02:35.821Z,20.15
2022-12-03T02:12:43.950Z,21.00
2022-12-03T02:23:04.724Z,22.70
2022-12-03T02:33:07.349Z,18.65
2022-12-03T02:43:10.691Z,21.70
2022-12-03T02:53:17.773Z,21.85
2022-12-03T03:03:21.154Z,22.57
2022-12-03T03:13:23.552Z,21.25
2022-12-03T03:23:26.091Z,21.92
2022-12-03T03:33:28.868Z,22.88
2022-12-03T03:43:34.932Z,22.00
2022-12-03T03:53:40.914Z,23.90
2022-12-03T04:03:43.148Z,23.35
2022-12-03T04:13:45.480Z,23.13
2022-12-03T04:23:47.665Z,23.23
2022-12-03T04:34:08.589Z,20.10
2022-12-03T04:44:29.547Z,20.48
2022-12-03T04:54:31.803Z,21.85
2022-12-03T05:04:34.153Z,24.33
2022-12-03T05:14:36.317Z,20.05
2022-12-03T05:24:38.561Z,19.35
2022-12-03T05:34:40.767Z,23.17
2022-12-03T05:44:42.943Z,24.60
2022-12-03T05:54:45.110Z,22.80
2022-12-03T06:04:47.398Z,26.95
2022-12-03T06:14:49.600Z,24.23
2022-12-03T06:24:52.248Z,24.90
2022-12-03T06:34:54.943Z,23.95
2022-12-03T06:44:57.443Z,31.27
2022-12-03T06:54:59.811Z,28.90
2022-12-03T07:05:02.151Z,28.85
2022-12-03T07:15:04.710Z,28.98
2022-12-03T07:25:07.655Z,26.35
2022-12-03T07:35:09.912Z,25.80
2022-12-03T07:45:12.163Z,24.67
2022-12-03T07:55:14.419Z,26.13
2022-12-03T08:05:16.676Z,23.25
2022-12-03T08:15:21.912Z,23.63
2022-12-03T08:25:30.315Z,22.35
2022-12-03T08:35:32.543Z,21.27
2022-12-03T08:45:40.488Z,22.92
2022-12-03T08:55:47.869Z,19.30
2022-12-03T09:05:51.035Z,20.37
2022-12-03T09:15:53.205Z,67.18
2022-12-03T09:25:55.440Z,103.63
2022-12-03T09:35:57.729Z,26.45
2022-12-03T09:46:00.535Z,31.70
2022-12-03T09:56:02.920Z,21.23
2022-12-03T10:06:05.329Z,37.38
2022-12-03T10:16:12.595Z,30.98
2022-12-03T10:26:14.916Z,25.53
2022-12-03T10:36:19.281Z,22.58
2022-12-03T10:46:22.581Z,19.42
2022-12-03T10:56:26.490Z,19.25
2022-12-03T11:06:31.645Z,23.80
2022-12-03T11:16:39.795Z,25.67
2022-12-03T11:26:41.972Z,33.58
2022-12-03T11:37:21.844Z,22.50
2022-12-03T11:47:24.095Z,19.55
2022-12-03T11:57:33.700Z,47.00
2022-12-03T12:07:36.805Z,31.13
2022-12-03T12:17:39.083Z,23.15
2022-12-03T12:27:45.591Z,22.15
2022-12-03T12:38:00.052Z,23.63
2022-12-03T12:48:24.599Z,23.42
2022-12-03T12:58:31.204Z,19.75
2022-12-03T13:08:43.031Z,22.17
2022-12-03T13:18:53.205Z,20.70
2022-12-03T13:28:57.926Z,16.33
2022-12-03T13:39:00.327Z,15.18
2022-12-03T13:49:02.616Z,16.92
2022-12-03T13:59:05.226Z,15.50
2022-12-03T14:09:07.555Z,16.73
2022-12-03T14:19:09.777Z,14.68
2022-12-03T14:29:11.956Z,16.15
2022-12-03T14:39:14.258Z,15.07
2022-12-03T14:49:16.854Z,15.05
2022-12-03T14:59:24.378Z,14.20
2022-12-03T15:09:30.199Z,16.27
2022-12-03T15:19:33.684Z,15.63
2022-12-03T15:29:35.920Z,16.42
2022-12-03T15:39:39.548Z,17.50
2022-12-03T15:49:44.965Z,14.60
2022-12-03T15:59:47.168Z,16.10
2022-12-03T16:09:49.423Z,16.23
2022-12-03T16:19:51.773Z,13.93
2022-12-03T16:29:56.358Z,19.40
2022-12-03T16:39:58.868Z,18.55
2022-12-03T16:50:03.679Z,16.70
2022-12-03T17:00:07.522Z,15.48
2022-12-03T17:10:10.318Z,15.18
2022-12-03T17:20:14.757Z,17.58
2022-12-03T17:30:17.620Z,14.23
2022-12-03T17:40:20.074Z,11.68
2022-12-03T17:50:22.245Z,11.93
2022-12-03T18:00:24.495Z,9.73
2022-12-03T18:10:28.262Z,9.77
2022-12-03T18:20:30.516Z,19.50
2022-12-03T18:30:32.728Z,13.40
2022-12-03T18:40:35.223Z,12.48
2022-12-03T18:50:39.113Z,14.10
2022-12-03T19:00:42.745Z,48.08
2022-12-03T19:10:45.695Z,31.58
2022-12-03T19:20:48.356Z,69.13
2022-12-03T19:31:02.198Z,75.05
2022-12-03T19:41:06.787Z,62.25
2022-12-03T19:51:32.878Z,73.55
2022-12-03T20:01:34.761Z,71.60
2022-12-03T20:11:37.853Z,64.97
2022-12-03T20:21:40.836Z,90.95
2022-12-03T20:31:43.280Z,95.95
2022-12-03T20:41:45.476Z,85.95
2022-12-03T20:51:51.517Z,68.03
2022-12-03T21:01:53.874Z,60.80
2022-12-03T21:11:56.325Z,52.35
2022-12-03T21:21:58.570Z,57.88
2022-12-03T21:40:12.740Z,48.58
2022-12-03T21:50:14.995Z,57.97
2022-12-03T22:00:17.465Z,50.40
2022-12-03T22:10:19.655Z,55.95
2022-12-03T22:20:21.884Z,66.57
2022-12-03T22:30:24.091Z,45.25
2022-12-03T22:40:26.305Z,47.33
2022-12-03T22:50:28.460Z,51.38
2022-12-03T23:00:33.287Z,48.60
2022-12-03T23:10:41.876Z,44.47
2022-12-03T23:20:46.684Z,42.25
2022-12-03T23:30:48.889Z,39.55
2022-12-03T23:40:53.107Z,34.05
2022-12-03T23:50:55.321Z,35.00
